ExpreSS Skopelitis — SW3130 — position and weather

sailwx.info

Track history (hours):
 
Tides and Currents Weather Stations Pressure Air Temp Water Temp Dewpoint Dewpoint Depression Visibility Wind Speed Wind Dir Waves Ship Positions

ExpreSS Skopelitis

Last reported at 2015-Jul-31 14:33 UTC. Time now 2015-Aug-01 01:30 UTC.
Position N 36°52' E 025°46'.

Length 45 m; draft 2.4 m.

Type: Passenger vessel. MMSI: 237029400.

Date/timePositionNaut miles runAvg speedWind from/ knotsBaromVisibWave heightAir tempDewpointWater temp
2015-Jul-31 14:33N 36°52' E 025°46'10 9.5
2015-Jul-31 13:32N 36°55' E 025°35'12 6.3
2015-Jul-31 11:33N 37°01' E 025°21'5 5.1
2015-Jul-31 10:33N 37°06' E 025°22'0 0.0
2015-Jul-31 09:33N 37°06' E 025°22'0 0.0
2015-Jul-31 08:33N 37°06' E 025°22'4 3.8
2015-Jul-31 07:33N 37°03' E 025°21'1212.1
2015-Jul-31 06:32N 36°52' E 025°29'6 6.6
2015-Jul-31 05:33N 36°56' E 025°35'9 8.9
2015-Jul-31 04:33N 36°52' E 025°46'2 0.1
2015-Jul-30 14:33N 36°51' E 025°47'1110.3
2015-Jul-30 13:30N 36°55' E 025°35'13 6.6
2015-Jul-30 11:34N 37°02' E 025°21'5 4.9
2015-Jul-30 10:32N 37°06' E 025°22'0 0.0
2015-Jul-30 09:33N 37°06' E 025°22'0 0.0
2015-Jul-30 08:34N 37°06' E 025°22'4 3.7
2015-Jul-30 07:34N 37°03' E 025°20'1212.1
2015-Jul-30 06:33N 36°53' E 025°28'7 6.6
2015-Jul-30 05:33N 36°56' E 025°36'9 9.1
2015-Jul-30 04:33N 36°52' E 025°46'4 0.4
2015-Jul-29 17:18N 36°50' E 025°51'7 7.0
2015-Jul-29 16:17N 36°55' E 025°56'912.2
2015-Jul-29 15:34N 37°03' E 025°50'5 4.8
2015-Jul-29 14:31N 37°01' E 025°44'8 8.8
2015-Jul-29 13:33N 36°56' E 025°36'13 6.6
2015-Jul-29 11:33N 37°01' E 025°21'5 5.2
2015-Jul-29 10:33N 37°06' E 025°22'0 0.0
2015-Jul-29 09:34N 37°06' E 025°22'6 5.7
2015-Jul-29 08:34N 37°01' E 025°22'1010.4
2015-Jul-29 07:33N 36°52' E 025°29'7 7.0
2015-Jul-29 06:33N 36°56' E 025°36'1211.5
2015-Jul-29 05:33N 37°04' E 025°46'8 8.0
2015-Jul-29 04:32N 36°59' E 025°54'7 6.7
2015-Jul-29 03:31N 36°52' E 025°54'6 0.4
2015-Jul-28 14:33N 36°51' E 025°47'12 9.5
2015-Jul-28 13:20N 36°54' E 025°33'4 5.1
2015-Jul-28 12:27N 36°52' E 025°28'1112.1
2015-Jul-28 11:33N 37°01' E 025°21'5 5.2
2015-Jul-28 10:34N 37°06' E 025°22'0 0.0
2015-Jul-28 09:34N 37°06' E 025°22'0 0.0
2015-Jul-28 08:33N 37°06' E 025°22'3 3.0
2015-Jul-28 07:34N 37°04' E 025°20'1212.0
2015-Jul-28 06:34N 36°54' E 025°27'6 5.9
2015-Jul-28 05:32N 36°55' E 025°35'9 9.3
2015-Jul-28 04:33N 36°52' E 025°46'5 0.4
2015-Jul-27 17:21N 36°50' E 025°50'7 8.2
2015-Jul-27 16:29N 36°54' E 025°58'1112.1
2015-Jul-27 15:34N 37°03' E 025°50'6 5.6
2015-Jul-27 14:32N 37°01' E 025°43'11 9.0
2015-Jul-27 13:22N 36°54' E 025°33'12 6.4
2015-Jul-27 11:34N 37°01' E 025°21'5 5.1
2015-Jul-27 10:34N 37°06' E 025°22'0 0.0
2015-Jul-27 09:33N 37°06' E 025°22'6 6.2
2015-Jul-27 08:34N 37°00' E 025°22'10 9.9
2015-Jul-27 07:33N 36°52' E 025°29'7 6.6
2015-Jul-27 06:31N 36°56' E 025°36'1212.3
2015-Jul-27 05:31N 37°05' E 025°46'8 8.2
2015-Jul-27 04:33N 36°59' E 025°54'7 6.7
2015-Jul-27 03:32N 36°52' E 025°54'5 0.3
2015-Jul-26 13:18N 36°50' E 025°49'1012.0
2015-Jul-26 12:27N 36°49' E 025°36'23 7.2
2015-Jul-26 09:17N 36°30' E 025°21'810.3
2015-Jul-26 08:33N 36°23' E 025°26'9 8.8
2015-Jul-26 07:31N 36°32' E 025°24'1111.8
2015-Jul-26 06:33N 36°41' E 025°34'1212.1
2015-Jul-26 05:33N 36°49' E 025°45'5 0.4
2015-Jul-25 17:12N 36°51' E 025°50'7 8.5
2015-Jul-25 16:24N 36°54' E 025°58'1112.2
2015-Jul-25 15:30N 37°03' E 025°50'6 5.3
2015-Jul-25 14:26N 37°01' E 025°43'8 9.3
2015-Jul-25 13:33N 36°56' E 025°35'6 5.5
2015-Jul-25 12:25N 36°53' E 025°28'1012.1
2015-Jul-25 11:34N 37°01' E 025°21'5 5.1
2015-Jul-25 10:33N 37°06' E 025°22'0 0.0
2015-Jul-25 09:34N 37°06' E 025°22'7 6.8
2015-Jul-25 08:34N 36°60' E 025°22'10 9.5
2015-Jul-25 07:31N 36°52' E 025°31'6 5.9
2015-Jul-25 06:33N 36°56' E 025°36'1412.0
2015-Jul-25 05:25N 37°06' E 025°48'8 9.4
2015-Jul-25 04:33N 36°59' E 025°54'7 6.7
2015-Jul-25 03:31N 36°52' E 025°54'3 1.2
2015-Jul-25 01:04N 36°50' E 025°52'1 0.1
2015-Jul-24 15:07N 36°50' E 025°51'712.2
2015-Jul-24 14:31N 36°53' E 025°43'10 8.9
2015-Jul-24 13:27N 36°53' E 025°31'13 6.9
2015-Jul-24 11:34N 37°03' E 025°20'3 3.4
2015-Jul-24 10:34N 37°06' E 025°22'0 0.0
2015-Jul-24 09:34N 37°06' E 025°22'0 0.0
2015-Jul-24 08:33N 37°06' E 025°22'3 3.5
2015-Jul-24 07:33N 37°03' E 025°20'14 9.9
2015-Jul-24 06:09N 36°52' E 025°31'5 8.2
2015-Jul-24 05:31N 36°56' E 025°35'10 9.8
2015-Jul-24 04:33N 36°52' E 025°46'1 0.1
2015-Jul-23 14:33N 36°51' E 025°47'1110.0
2015-Jul-23 13:29N 36°55' E 025°35'13 6.6
2015-Jul-23 11:34N 37°02' E 025°21'5 4.8
2015-Jul-23 10:34N 37°06' E 025°22'0 0.0
2015-Jul-23 09:34N 37°06' E 025°22'0 0.0
2015-Jul-23 08:34N 37°06' E 025°22'3 3.3
2015-Jul-23 07:34N 37°03' E 025°20'1410.4
2015-Jul-23 06:15N 36°52' E 025°29'5 7.7
2015-Jul-23 05:33N 36°55' E 025°35'13 1.1
2015-Jul-22 17:30N 36°51' E 025°50'7 6.7
2015-Jul-22 16:27N 36°56' E 025°56'1112.3
2015-Jul-22 15:33N 37°06' E 025°48'8 7.9
2015-Jul-22 14:33N 36°59' E 025°42'8 7.7
2015-Jul-22 13:33N 36°55' E 025°34'13 6.3
2015-Jul-22 11:33N 37°02' E 025°21'4 4.5
2015-Jul-22 10:33N 37°06' E 025°22'0 0.0
2015-Jul-22 09:33N 37°06' E 025°22'6 5.6
2015-Jul-22 08:33N 37°01' E 025°21'1110.1
2015-Jul-22 07:25N 36°52' E 025°30'7 7.0
2015-Jul-22 06:24N 36°56' E 025°38'13 7.1
2015-Jul-22 04:33N 36°59' E 025°54'7 6.9
2015-Jul-22 03:29N 36°52' E 025°53'6 0.4
2015-Jul-21 14:33N 36°52' E 025°46'  
Track history (hours):
 
Tides and Currents Weather Stations Pressure Air Temp Water Temp Dewpoint Dewpoint Depression Visibility Wind Speed Wind Dir Waves Ship Positions

ExpreSS Skopelitis

Last reported at 2015-Jul-31 14:33 UTC. Time now 2015-Aug-01 01:30 UTC.
Position N 36°52' E 025°46'.

Length 45 m; draft 2.4 m.

Type: Passenger vessel. MMSI: 237029400.

Date/timePositionNaut miles runAvg speedWind from/ knotsBaromVisibWave heightAir tempDewpointWater temp
2015-Jul-31 14:33N 36°52' E 025°46'10 9.5
2015-Jul-31 13:32N 36°55' E 025°35'12 6.3
2015-Jul-31 11:33N 37°01' E 025°21'5 5.1
2015-Jul-31 10:33N 37°06' E 025°22'0 0.0
2015-Jul-31 09:33N 37°06' E 025°22'0 0.0
2015-Jul-31 08:33N 37°06' E 025°22'4 3.8
2015-Jul-31 07:33N 37°03' E 025°21'1212.1
2015-Jul-31 06:32N 36°52' E 025°29'6 6.6
2015-Jul-31 05:33N 36°56' E 025°35'9 8.9
2015-Jul-31 04:33N 36°52' E 025°46'2 0.1
2015-Jul-30 14:33N 36°51' E 025°47'1110.3
2015-Jul-30 13:30N 36°55' E 025°35'13 6.6
2015-Jul-30 11:34N 37°02' E 025°21'5 4.9
2015-Jul-30 10:32N 37°06' E 025°22'0 0.0
2015-Jul-30 09:33N 37°06' E 025°22'0 0.0
2015-Jul-30 08:34N 37°06' E 025°22'4 3.7
2015-Jul-30 07:34N 37°03' E 025°20'1212.1
2015-Jul-30 06:33N 36°53' E 025°28'7 6.6
2015-Jul-30 05:33N 36°56' E 025°36'9 9.1
2015-Jul-30 04:33N 36°52' E 025°46'4 0.4
2015-Jul-29 17:18N 36°50' E 025°51'7 7.0
2015-Jul-29 16:17N 36°55' E 025°56'912.2
2015-Jul-29 15:34N 37°03' E 025°50'5 4.8
2015-Jul-29 14:31N 37°01' E 025°44'8 8.8
2015-Jul-29 13:33N 36°56' E 025°36'13 6.6
2015-Jul-29 11:33N 37°01' E 025°21'5 5.2
2015-Jul-29 10:33N 37°06' E 025°22'0 0.0
2015-Jul-29 09:34N 37°06' E 025°22'6 5.7
2015-Jul-29 08:34N 37°01' E 025°22'1010.4
2015-Jul-29 07:33N 36°52' E 025°29'7 7.0
2015-Jul-29 06:33N 36°56' E 025°36'1211.5
2015-Jul-29 05:33N 37°04' E 025°46'8 8.0
2015-Jul-29 04:32N 36°59' E 025°54'7 6.7
2015-Jul-29 03:31N 36°52' E 025°54'6 0.4
2015-Jul-28 14:33N 36°51' E 025°47'12 9.5
2015-Jul-28 13:20N 36°54' E 025°33'4 5.1
2015-Jul-28 12:27N 36°52' E 025°28'1112.1
2015-Jul-28 11:33N 37°01' E 025°21'5 5.2
2015-Jul-28 10:34N 37°06' E 025°22'0 0.0
2015-Jul-28 09:34N 37°06' E 025°22'0 0.0
2015-Jul-28 08:33N 37°06' E 025°22'3 3.0
2015-Jul-28 07:34N 37°04' E 025°20'1212.0
2015-Jul-28 06:34N 36°54' E 025°27'6 5.9
2015-Jul-28 05:32N 36°55' E 025°35'9 9.3
2015-Jul-28 04:33N 36°52' E 025°46'5 0.4
2015-Jul-27 17:21N 36°50' E 025°50'7 8.2
2015-Jul-27 16:29N 36°54' E 025°58'1112.1
2015-Jul-27 15:34N 37°03' E 025°50'6 5.6
2015-Jul-27 14:32N 37°01' E 025°43'11 9.0
2015-Jul-27 13:22N 36°54' E 025°33'12 6.4
2015-Jul-27 11:34N 37°01' E 025°21'5 5.1
2015-Jul-27 10:34N 37°06' E 025°22'0 0.0
2015-Jul-27 09:33N 37°06' E 025°22'6 6.2
2015-Jul-27 08:34N 37°00' E 025°22'10 9.9
2015-Jul-27 07:33N 36°52' E 025°29'7 6.6
2015-Jul-27 06:31N 36°56' E 025°36'1212.3
2015-Jul-27 05:31N 37°05' E 025°46'8 8.2
2015-Jul-27 04:33N 36°59' E 025°54'7 6.7
2015-Jul-27 03:32N 36°52' E 025°54'5 0.3
2015-Jul-26 13:18N 36°50' E 025°49'1012.0
2015-Jul-26 12:27N 36°49' E 025°36'23 7.2
2015-Jul-26 09:17N 36°30' E 025°21'810.3
2015-Jul-26 08:33N 36°23' E 025°26'9 8.8
2015-Jul-26 07:31N 36°32' E 025°24'1111.8
2015-Jul-26 06:33N 36°41' E 025°34'1212.1
2015-Jul-26 05:33N 36°49' E 025°45'5 0.4
2015-Jul-25 17:12N 36°51' E 025°50'7 8.5
2015-Jul-25 16:24N 36°54' E 025°58'1112.2
2015-Jul-25 15:30N 37°03' E 025°50'6 5.3
2015-Jul-25 14:26N 37°01' E 025°43'8 9.3
2015-Jul-25 13:33N 36°56' E 025°35'6 5.5
2015-Jul-25 12:25N 36°53' E 025°28'1012.1
2015-Jul-25 11:34N 37°01' E 025°21'5 5.1
2015-Jul-25 10:33N 37°06' E 025°22'0 0.0
2015-Jul-25 09:34N 37°06' E 025°22'7 6.8
2015-Jul-25 08:34N 36°60' E 025°22'10 9.5
2015-Jul-25 07:31N 36°52' E 025°31'6 5.9
2015-Jul-25 06:33N 36°56' E 025°36'1412.0
2015-Jul-25 05:25N 37°06' E 025°48'8 9.4
2015-Jul-25 04:33N 36°59' E 025°54'7 6.7
2015-Jul-25 03:31N 36°52' E 025°54'3 1.2
2015-Jul-25 01:04N 36°50' E 025°52'1 0.1
2015-Jul-24 15:07N 36°50' E 025°51'712.2
2015-Jul-24 14:31N 36°53' E 025°43'10 8.9
2015-Jul-24 13:27N 36°53' E 025°31'13 6.9
2015-Jul-24 11:34N 37°03' E 025°20'3 3.4
2015-Jul-24 10:34N 37°06' E 025°22'0 0.0
2015-Jul-24 09:34N 37°06' E 025°22'0 0.0
2015-Jul-24 08:33N 37°06' E 025°22'3 3.5
2015-Jul-24 07:33N 37°03' E 025°20'14 9.9
2015-Jul-24 06:09N 36°52' E 025°31'5 8.2
2015-Jul-24 05:31N 36°56' E 025°35'10 9.8
2015-Jul-24 04:33N 36°52' E 025°46'1 0.1
2015-Jul-23 14:33N 36°51' E 025°47'1110.0
2015-Jul-23 13:29N 36°55' E 025°35'13 6.6
2015-Jul-23 11:34N 37°02' E 025°21'5 4.8
2015-Jul-23 10:34N 37°06' E 025°22'0 0.0
2015-Jul-23 09:34N 37°06' E 025°22'0 0.0
2015-Jul-23 08:34N 37°06' E 025°22'3 3.3
2015-Jul-23 07:34N 37°03' E 025°20'1410.4
2015-Jul-23 06:15N 36°52' E 025°29'5 7.7
2015-Jul-23 05:33N 36°55' E 025°35'13 1.1
2015-Jul-22 17:30N 36°51' E 025°50'7 6.7
2015-Jul-22 16:27N 36°56' E 025°56'1112.3
2015-Jul-22 15:33N 37°06' E 025°48'8 7.9
2015-Jul-22 14:33N 36°59' E 025°42'8 7.7
2015-Jul-22 13:33N 36°55' E 025°34'13 6.3
2015-Jul-22 11:33N 37°02' E 025°21'4 4.5
2015-Jul-22 10:33N 37°06' E 025°22'0 0.0
2015-Jul-22 09:33N 37°06' E 025°22'6 5.6
2015-Jul-22 08:33N 37°01' E 025°21'1110.1
2015-Jul-22 07:25N 36°52' E 025°30'7 7.0
2015-Jul-22 06:24N 36°56' E 025°38'13 7.1
2015-Jul-22 04:33N 36°59' E 025°54'7 6.9
2015-Jul-22 03:29N 36°52' E 025°53'6 0.4
2015-Jul-21 14:33N 36°52' E 025°46'  

Dump ship's entire track history